Time;durP1;ratioP1;P1;durP2;ratioP2;P2;SDS_P1;SDS_P2;PMS_P1;PMS_P2;Temp;Humidity;BMP_temperature;BMP_pressure;BME280_temperature;BME280_humidity;BME280_pressure;Samples;Min_cycle;Max_cycle;Signal;HPM_P1;HPM_P2
2022/05/04 07:58:40;;;;;;;14.40;7.50;;;;;;;11.98;60.68;101805.66;5318276;27;20416;-76
2022/05/04 08:04:16;;;;;;;17.48;7.22;;;;;;;11.81;56.55;101816.16;5285075;28;20478;-76
2022/05/04 08:06:48;;;;;;;13.98;7.38;;;;;;;11.92;57.02;101812.31;5302067;28;20032;-76
2022/05/04 08:09:19;;;;;;;12.98;7.03;;;;;;;12.10;58.89;101813.75;5301331;28;20043;-77
2022/05/04 08:11:51;;;;;;;11.20;7.43;;;;;;;12.01;56.84;101819.00;5303191;28;20025;-76
2022/05/04 08:14:24;;;;;;;10.48;6.70;;;;;;;12.11;57.33;101807.06;5322167;28;20312;-77
2022/05/04 08:16:58;;;;;;;10.70;6.30;;;;;;;12.31;58.32;101815.41;5306415;28;20104;-78
2022/05/04 08:19:29;;;;;;;10.02;7.15;;;;;;;12.23;58.58;101812.38;5302821;28;20030;-77
2022/05/04 08:22:00;;;;;;;10.35;7.40;;;;;;;12.14;56.61;101806.50;5301546;28;20020;-78
2022/05/04 08:24:32;;;;;;;10.85;7.57;;;;;;;12.23;55.71;101798.44;5301856;28;20251;-81
2022/05/04 08:27:03;;;;;;;11.98;7.47;;;;;;;12.36;55.64;101809.03;5306204;28;20058;-81
2022/05/04 08:29:35;;;;;;;12.10;7.35;;;;;;;12.43;56.53;101815.16;5313758;28;20016;-80
2022/05/04 08:32:06;;;;;;;14.43;8.10;;;;;;;12.40;54.98;101804.59;5331912;28;20020;-80
2022/05/04 08:34:38;;;;;;;10.50;7.40;;;;;;;12.46;56.40;101814.59;5323904;28;20022;-79
2022/05/04 08:37:09;;;;;;;14.60;7.72;;;;;;;12.30;54.74;101813.75;5328498;28;20041;-80
2022/05/04 08:39:40;;;;;;;14.95;7.60;;;;;;;12.43;55.79;101808.75;5316033;28;20032;-78
2022/05/04 08:42:13;;;;;;;12.73;8.43;;;;;;;12.59;54.43;101814.00;5334096;28;20028;-79
2022/05/04 08:44:47;;;;;;;11.52;6.88;;;;;;;12.53;55.24;101809.56;5306088;28;20032;-81
2022/05/04 08:47:21;;;;;;;10.93;7.10;;;;;;;12.56;56.78;101802.63;5290048;28;20115;-78
2022/05/04 08:49:55;;;;;;;9.95;6.95;;;;;;;12.74;55.77;101813.16;5311073;28;20115;-77
2022/05/04 08:52:27;;;;;;;10.02;7.57;;;;;;;12.74;54.83;101806.75;5302821;28;20497;-79
2022/05/04 08:54:59;;;;;;;13.55;7.90;;;;;;;12.85;56.42;101805.63;5301260;28;20024;-75
2022/05/04 08:57:31;;;;;;;11.60;7.15;;;;;;;12.83;55.36;101796.72;5312900;28;20540;-75
2022/05/04 09:00:03;;;;;;;11.23;7.63;;;;;;;12.94;54.32;101794.75;5321771;28;20031;-76
2022/05/04 09:02:34;;;;;;;14.25;7.13;;;;;;;12.83;54.26;101799.50;5331763;28;20031;-78
2022/05/04 09:05:12;;;;;;;13.50;8.07;;;;;;;13.15;55.27;101803.88;5300148;28;20492;-76
2022/05/04 09:07:46;;;;;;;11.38;8.05;;;;;;;13.11;51.80;101808.34;5304827;28;20032;-76
2022/05/04 09:10:21;;;;;;;11.80;6.88;;;;;;;13.11;54.61;101806.38;5306394;28;20034;-79
2022/05/04 09:12:55;;;;;;;9.98;7.53;;;;;;;13.13;54.83;101794.97;5290969;28;20063;-77
2022/05/04 09:15:29;;;;;;;12.65;7.60;;;;;;;13.37;54.92;101798.81;5303669;28;20036;-77
2022/05/04 09:18:05;;;;;;;13.50;8.23;;;;;;;13.34;53.81;101801.31;5307143;28;20094;-76
2022/05/04 09:20:55;;;;;;;9.43;6.70;;;;;;;13.27;53.00;101788.53;5296115;28;20033;-77
2022/05/04 09:23:31;;;;;;;15.80;8.10;;;;;;;13.20;52.56;101795.50;5326564;28;20059;-76
2022/05/04 09:26:05;;;;;;;10.73;7.65;;;;;;;12.89;53.54;101795.59;5306167;28;20407;-76
2022/05/04 09:28:36;;;;;;;18.27;9.27;;;;;;;13.04;53.85;101787.19;5306407;28;20020;-76
2022/05/04 09:31:08;;;;;;;14.82;8.82;;;;;;;13.11;52.05;101781.31;5306490;28;20068;-77
2022/05/04 09:33:39;;;;;;;9.85;7.28;;;;;;;13.07;51.55;101784.97;5318932;28;20474;-74
2022/05/04 09:36:11;;;;;;;12.30;8.00;;;;;;;13.15;52.45;101787.16;5307814;28;20028;-75
2022/05/04 09:47:19;;;;;;;33.28;28.25;;;;;;;13.48;54.57;101783.69;5285185;28;20036;-76
2022/05/04 09:50:00;;;;;;;20.35;13.88;;;;;;;13.48;51.70;101791.22;5318860;28;20094;-76
2022/05/04 09:52:46;;;;;;;23.88;19.63;;;;;;;13.72;54.28;101788.56;5327279;28;20111;-75
2022/05/04 09:55:20;;;;;;;12.30;7.95;;;;;;;13.82;54.40;101784.91;5297648;28;20024;-76
2022/05/04 09:57:54;;;;;;;13.85;7.88;;;;;;;13.80;52.25;101771.25;5283779;28;20044;-75
2022/05/04 10:00:27;;;;;;;8.45;6.93;;;;;;;14.01;52.38;101773.88;5285894;28;20028;-75
2022/05/04 10:02:58;;;;;;;12.25;8.82;;;;;;;14.10;50.81;101770.19;5323743;28;20791;-76
2022/05/04 10:05:33;;;;;;;13.50;8.65;;;;;;;13.92;51.19;101774.50;5327459;28;20016;-76
2022/05/04 10:08:05;;;;;;;14.57;8.70;;;;;;;13.78;50.35;101773.50;5327122;28;20107;-78
2022/05/04 10:10:40;;;;;;;11.80;7.90;;;;;;;13.74;48.95;101777.16;5324254;28;20450;-76
2022/05/04 10:13:18;;;;;;;10.93;7.18;;;;;;;13.90;49.52;101771.16;5284678;28;20036;-74
2022/05/04 10:15:53;;;;;;;14.30;9.18;;;;;;;13.72;49.46;101773.81;5285158;28;20440;-76
2022/05/04 10:18:29;;;;;;;13.33;8.50;;;;;;;13.74;50.21;101771.56;5283851;28;20064;-75
2022/05/04 10:21:12;;;;;;;13.43;9.30;;;;;;;13.69;50.97;101767.69;5283551;28;20025;-75
2022/05/04 10:23:47;;;;;;;17.60;12.70;;;;;;;13.76;50.64;101763.75;5284402;28;20032;-75
2022/05/04 10:26:33;;;;;;;12.90;8.20;;;;;;;13.83;50.59;101759.53;5284588;28;20468;-75
2022/05/04 10:32:37;;;;;;;11.55;6.80;;;;;;;14.21;49.58;101768.13;5298879;28;20463;-77
2022/05/04 10:35:08;;;;;;;24.30;18.23;;;;;;;14.23;50.27;101763.09;5288399;28;20016;-77
2022/05/04 10:37:58;;;;;;;10.80;7.10;;;;;;;14.36;49.37;101767.19;5305419;28;20035;-77
2022/05/04 10:40:51;;;;;;;12.95;7.85;;;;;;;14.32;49.41;101769.72;5312891;28;20293;-78
2022/05/04 10:43:46;;;;;;;11.25;7.32;;;;;;;14.40;49.25;101773.03;5330016;28;20430;-78
2022/05/04 10:46:22;;;;;;;10.98;7.47;;;;;;;14.41;48.91;101764.34;5314875;28;20089;-78
2022/05/04 10:48:53;;;;;;;9.90;7.38;;;;;;;14.66;48.83;101768.88;5306185;28;20536;-78
2022/05/04 10:51:29;;;;;;;15.87;10.07;;;;;;;14.50;48.71;101772.94;5317529;28;20114;-76
2022/05/04 10:54:08;;;;;;;12.93;8.52;;;;;;;14.73;51.36;101772.16;5326307;28;20319;-77
2022/05/04 10:56:50;;;;;;;13.93;8.60;;;;;;;14.86;48.49;101761.44;5323627;28;20051;-78
2022/05/04 10:59:25;;;;;;;13.43;9.10;;;;;;;14.54;46.76;101757.28;5305046;28;20441;-76
2022/05/04 11:02:00;;;;;;;13.63;8.43;;;;;;;14.67;47.21;101762.16;5306782;28;20025;-77
2022/05/04 11:04:32;;;;;;;12.32;6.60;;;;;;;14.72;48.04;101750.09;5292353;28;20036;-78
2022/05/04 11:07:06;;;;;;;12.65;7.63;;;;;;;14.68;47.24;101751.84;5294942;28;20064;-76
2022/05/04 11:09:42;;;;;;;14.25;8.20;;;;;;;14.60;47.21;101753.31;5283757;28;20036;-75
2022/05/04 11:12:13;;;;;;;14.20;7.75;;;;;;;14.52;47.47;101748.31;5283789;28;20024;-78
2022/05/04 11:14:44;;;;;;;10.95;7.00;;;;;;;14.81;47.78;101745.56;5283117;28;20032;-78
2022/05/04 11:17:16;;;;;;;9.95;7.85;;;;;;;14.97;46.83;101744.22;5283921;28;20119;-78
2022/05/04 11:19:48;;;;;;;12.40;8.07;;;;;;;15.17;46.90;101736.75;5300174;28;20028;-78
2022/05/04 11:22:19;;;;;;;12.80;7.28;;;;;;;15.41;47.03;101742.28;5304179;28;20016;-77
2022/05/04 11:24:51;;;;;;;17.38;14.55;;;;;;;15.61;46.30;101736.41;5289603;28;20463;-77
2022/05/04 11:27:23;;;;;;;15.18;8.55;;;;;;;15.49;46.13;101744.38;5312820;28;20337;-76
2022/05/04 11:29:58;;;;;;;14.60;9.73;;;;;;;15.49;46.32;101737.97;5325440;28;20047;-77
2022/05/04 11:32:32;;;;;;;15.23;8.23;;;;;;;15.52;45.58;101738.22;5325192;28;20424;-76
2022/05/04 11:35:04;;;;;;;15.65;8.52;;;;;;;15.72;46.09;101736.28;5318366;28;20028;-77
2022/05/04 11:37:40;;;;;;;14.05;8.43;;;;;;;15.51;45.63;101730.94;5300153;28;20034;-77
2022/05/04 11:40:16;;;;;;;79.13;14.55;;;;;;;15.77;46.13;101733.41;5301646;28;20020;-77
2022/05/04 11:42:48;;;;;;;50.67;14.73;;;;;;;15.95;45.57;101726.13;5282276;28;20032;-76
2022/05/04 11:45:20;;;;;;;16.30;10.95;;;;;;;15.85;45.12;101724.34;5283239;28;20476;-76
2022/05/04 11:47:54;;;;;;;15.07;12.38;;;;;;;16.02;44.63;101719.00;5283235;28;20032;-76
2022/05/04 11:50:26;;;;;;;16.00;9.80;;;;;;;15.99;44.66;101711.22;5310360;28;20023;-79
2022/05/04 11:52:57;;;;;;;10.27;8.45;;;;;;;15.93;44.65;101711.63;5307422;28;20021;-79
2022/05/04 11:55:29;;;;;;;18.05;10.75;;;;;;;16.15;44.94;101710.97;5298156;28;20051;-80
2022/05/04 11:58:00;;;;;;;13.77;8.40;;;;;;;16.08;44.70;101705.78;5303217;28;20036;-74
2022/05/04 12:00:31;;;;;;;11.30;8.15;;;;;;;16.34;44.93;101708.13;5325107;28;20160;-75
2022/05/04 12:03:04;;;;;;;12.82;8.45;;;;;;;16.28;44.27;101704.56;5324639;28;20454;-73
2022/05/04 12:05:38;;;;;;;17.42;8.48;;;;;;;16.43;44.25;101703.47;5325440;28;20020;-74
2022/05/04 12:08:09;;;;;;;10.95;7.28;;;;;;;16.61;42.95;101708.13;5308578;28;20032;-74
2022/05/04 12:10:41;;;;;;;10.10;7.97;;;;;;;16.43;41.83;101704.28;5293767;28;20020;-74
2022/05/04 12:13:15;;;;;;;10.10;7.05;;;;;;;16.59;42.28;101699.25;5296296;28;20093;-74
2022/05/04 12:15:47;;;;;;;10.60;6.93;;;;;;;16.68;42.54;101696.53;5290796;28;20059;-73
2022/05/04 12:18:18;;;;;;;11.75;8.07;;;;;;;16.78;42.18;101699.16;5303261;28;20028;-75
2022/05/04 12:20:50;;;;;;;12.65;7.63;;;;;;;16.78;41.64;101690.78;5303836;28;20038;-75
2022/05/04 12:23:21;;;;;;;9.68;7.50;;;;;;;16.98;42.05;101685.91;5303160;28;20105;-75
2022/05/04 12:25:53;;;;;;;13.73;8.43;;;;;;;16.99;41.35;101693.97;5303467;28;20039;-75
2022/05/04 12:28:24;;;;;;;17.92;8.90;;;;;;;17.22;40.84;101694.03;5293116;28;20463;-76
2022/05/04 12:33:50;;;;;;;10.60;7.03;;;;;;;17.38;40.62;101686.94;5282647;28;20036;-77
2022/05/04 12:36:28;;;;;;;;;;;;;;;17.64;41.04;101690.00;5283412;28;20028;-76
2022/05/04 12:38:59;;;;;;;16.55;8.07;;;;;;;17.83;41.08;101686.22;5296820;28;19969;-76
2022/05/04 12:41:31;;;;;;;11.90;8.82;;;;;;;17.53;40.07;101691.38;5325012;28;20423;-77
2022/05/04 12:44:04;;;;;;;13.57;8.88;;;;;;;17.57;40.66;101684.00;5316711;28;20481;-77
2022/05/04 12:46:37;;;;;;;10.48;8.77;;;;;;;17.67;40.42;101694.97;5285698;28;20051;-76
2022/05/04 12:49:08;;;;;;;13.20;8.18;;;;;;;17.88;40.34;101683.28;5295582;28;20047;-76
2022/05/04 12:51:39;;;;;;;19.88;9.68;;;;;;;18.06;40.06;101679.44;5307944;28;20028;-77
2022/05/04 12:54:11;;;;;;;12.90;8.38;;;;;;;17.94;40.31;101676.38;5306996;28;20119;-76
2022/05/04 12:56:46;;;;;;;12.48;7.53;;;;;;;18.12;40.09;101686.56;5307371;28;20044;-77
2022/05/04 12:59:19;;;;;;;11.70;7.80;;;;;;;18.25;39.95;101680.06;5306803;28;20028;-77
2022/05/04 13:01:50;;;;;;;12.90;8.18;;;;;;;18.27;39.99;101687.31;5306771;28;20016;-77
2022/05/04 13:04:24;;;;;;;10.68;8.45;;;;;;;18.24;39.45;101686.81;5307488;28;20077;-77
2022/05/04 13:06:55;;;;;;;11.68;7.40;;;;;;;18.40;38.69;101673.19;5299404;28;20479;-77
2022/05/04 13:09:28;;;;;;;14.23;7.35;;;;;;;18.50;38.67;101680.50;5306852;28;20043;-77
2022/05/04 13:11:59;;;;;;;11.50;7.28;;;;;;;18.68;38.39;101676.59;5294187;28;20020;-77
2022/05/04 13:14:31;;;;;;;11.35;6.63;;;;;;;18.54;38.38;101678.72;5285352;28;20360;-77
2022/05/04 13:17:02;;;;;;;9.27;7.45;;;;;;;18.22;38.17;101683.47;5286226;28;20074;-77
2022/05/04 13:19:36;;;;;;;11.88;7.35;;;;;;;18.39;38.71;101679.97;5292179;28;20127;-77
2022/05/04 13:22:07;;;;;;;63.53;55.38;;;;;;;18.43;37.61;101678.16;5314068;28;20023;-76
2022/05/04 13:24:38;;;;;;;12.60;8.32;;;;;;;18.34;37.58;101682.09;5285965;28;20031;-75
2022/05/04 13:27:10;;;;;;;9.07;6.65;;;;;;;18.18;37.81;101676.88;5316415;28;20037;-76
2022/05/04 13:29:41;;;;;;;9.88;7.20;;;;;;;18.59;37.10;101669.31;5326184;28;20036;-75
2022/05/04 13:32:12;;;;;;;11.10;7.22;;;;;;;18.65;37.90;101663.22;5326517;28;20023;-74
2022/05/04 13:34:44;;;;;;;9.95;7.18;;;;;;;18.61;37.55;101667.84;5307567;28;20531;-74
2022/05/04 13:37:15;;;;;;;14.00;12.25;;;;;;;18.80;37.71;101666.78;5306562;28;20556;-75
2022/05/04 13:39:46;;;;;;;12.90;8.52;;;;;;;19.06;37.59;101667.66;5299802;28;20028;-75
2022/05/04 13:42:18;;;;;;;11.43;7.55;;;;;;;18.95;37.00;101663.50;5299131;28;20474;-75
2022/05/04 13:44:49;;;;;;;13.73;8.27;;;;;;;18.93;37.20;101662.19;5309924;28;20035;-77
2022/05/04 13:47:20;;;;;;;14.43;11.40;;;;;;;18.84;36.49;101662.13;5306987;28;20020;-74
2022/05/04 13:49:52;;;;;;;9.60;7.43;;;;;;;18.64;37.79;101664.38;5305572;28;20031;-75
2022/05/04 13:55:13;;;;;;;8.95;6.57;;;;;;;19.30;37.47;101649.50;5284267;28;20453;-75
2022/05/04 13:57:44;;;;;;;11.85;7.90;;;;;;;19.33;37.24;101648.84;5305145;28;20138;-75
2022/05/04 14:00:16;;;;;;;12.15;7.72;;;;;;;19.39;36.97;101647.53;5327398;28;20031;-75
2022/05/04 14:02:47;;;;;;;13.77;8.00;;;;;;;19.34;36.85;101650.50;5315190;28;20039;-75
2022/05/04 14:05:20;;;;;;;9.45;7.78;;;;;;;19.53;36.30;101642.56;5297930;28;20090;-74
2022/05/04 14:07:52;;;;;;;12.10;6.65;;;;;;;19.69;36.64;101639.28;5298095;28;20028;-75
2022/05/04 14:10:24;;;;;;;11.13;8.20;;;;;;;19.61;36.45;101640.91;5303321;28;20043;-76
2022/05/04 14:12:59;;;;;;;22.38;17.70;;;;;;;19.58;36.30;101637.91;5282791;28;20765;-79
2022/05/04 14:15:31;;;;;;;11.85;7.45;;;;;;;19.72;36.27;101638.63;5310158;28;20028;-75
2022/05/04 14:18:05;;;;;;;12.80;8.68;;;;;;;19.83;36.70;101639.91;5316217;28;20032;-76
2022/05/04 14:20:36;;;;;;;10.60;8.30;;;;;;;19.66;36.44;101645.53;5304277;28;20020;-76
2022/05/04 14:23:08;;;;;;;10.93;7.43;;;;;;;19.76;36.35;101634.81;5290460;28;20379;-76
2022/05/04 14:25:40;;;;;;;11.07;8.38;;;;;;;19.81;35.83;101641.41;5312405;28;20040;-76
2022/05/04 14:28:11;;;;;;;11.55;7.68;;;;;;;19.69;36.02;101630.84;5299703;28;20378;-74
2022/05/04 14:30:43;;;;;;;14.85;7.90;;;;;;;19.80;36.24;101634.13;5297842;28;20128;-73
2022/05/04 14:33:14;;;;;;;16.02;12.95;;;;;;;19.98;37.34;101636.56;5282626;28;20025;-74
2022/05/04 14:35:48;;;;;;;12.43;8.80;;;;;;;19.94;35.63;101629.97;5291733;28;20497;-75
2022/05/04 14:38:20;;;;;;;9.52;6.88;;;;;;;19.77;35.00;101630.00;5303252;28;20141;-73
2022/05/04 14:40:51;;;;;;;10.73;7.32;;;;;;;19.35;35.32;101635.25;5303936;28;20024;-73
2022/05/04 14:43:24;;;;;;;11.65;7.90;;;;;;;19.38;35.49;101631.81;5297744;28;20024;-76
2022/05/04 14:45:55;;;;;;;10.98;8.85;;;;;;;19.51;35.51;101630.00;5281313;28;20364;-76
2022/05/04 14:48:27;;;;;;;11.73;8.20;;;;;;;19.45;35.49;101629.31;5287850;28;20032;-77
2022/05/04 14:51:00;;;;;;;14.90;12.73;;;;;;;19.43;35.67;101626.03;5304915;28;20027;-75
2022/05/04 14:53:31;;;;;;;11.77;8.00;;;;;;;19.26;35.17;101631.66;5308860;28;20083;-75
2022/05/04 14:56:03;;;;;;;8.50;7.32;;;;;;;19.20;35.31;101621.69;5310845;28;20056;-75
2022/05/04 14:58:34;;;;;;;9.90;6.78;;;;;;;19.21;35.37;101629.81;5305490;28;20048;-77
2022/05/04 15:01:06;;;;;;;9.02;6.55;;;;;;;19.34;35.46;101626.00;5311861;28;20031;-81
2022/05/04 15:06:27;;;;;;;15.82;12.80;;;;;;;19.19;36.24;101615.25;5306615;28;20044;-80
2022/05/04 15:08:59;;;;;;;35.40;31.67;;;;;;;19.27;35.75;101624.84;5312174;28;20479;-80
2022/05/04 15:11:32;;;;;;;11.82;8.05;;;;;;;18.82;36.08;101606.28;5310402;28;20424;-78
2022/05/04 15:14:04;;;;;;;15.07;11.85;;;;;;;18.77;36.12;101616.84;5302530;28;20031;-78
2022/05/04 15:16:35;;;;;;;30.40;20.73;;;;;;;18.85;36.55;101613.22;5304004;28;20024;-78
2022/05/04 15:19:06;;;;;;;14.55;11.48;;;;;;;18.79;36.46;101621.00;5284462;28;20032;-82
2022/05/04 15:21:38;;;;;;;10.27;6.88;;;;;;;18.86;36.69;101620.50;5303511;28;20035;-81
2022/05/04 15:24:09;;;;;;;10.40;6.85;;;;;;;18.64;36.31;101622.25;5304663;28;20129;-83
2022/05/04 15:26:40;;;;;;;10.85;6.45;;;;;;;18.56;37.02;101625.84;5301878;28;20340;-83
2022/05/04 15:29:11;;;;;;;9.45;6.18;;;;;;;18.73;37.20;101621.44;5311952;28;20028;-83
2022/05/04 15:31:43;;;;;;;8.30;6.50;;;;;;;18.49;37.55;101630.28;5309509;28;20103;-80
2022/05/04 15:34:15;;;;;;;13.23;6.38;;;;;;;18.48;37.12;101632.25;5302589;28;20120;-78
2022/05/04 15:36:47;;;;;;;12.77;6.90;;;;;;;18.43;37.04;101635.19;5298963;28;20044;-79
2022/05/04 15:39:21;;;;;;;9.45;7.38;;;;;;;18.25;37.69;101628.66;5320041;28;20417;-83
2022/05/04 15:41:53;;;;;;;11.18;6.60;;;;;;;18.10;38.19;101624.31;5300069;28;20482;-72
2022/05/04 15:44:25;;;;;;;10.18;7.15;;;;;;;18.24;38.67;101636.28;5305617;28;20144;-80
2022/05/04 15:46:56;;;;;;;10.40;6.55;;;;;;;18.07;38.69;101636.16;5308430;28;20064;-78
2022/05/04 15:49:30;;;;;;;10.02;6.25;;;;;;;18.11;38.63;101636.38;5298524;28;20028;-75
2022/05/04 15:52:03;;;;;;;9.60;6.25;;;;;;;17.80;38.94;101629.59;5286051;28;20035;-74
2022/05/04 15:54:34;;;;;;;10.13;6.47;;;;;;;17.64;39.09;101633.91;5282108;28;20099;-74
2022/05/04 15:57:06;;;;;;;10.27;6.30;;;;;;;17.84;39.53;101632.56;5285341;28;20127;-73
2022/05/04 15:59:37;;;;;;;7.93;5.60;;;;;;;17.86;39.74;101627.47;5283406;28;20029;-73
2022/05/04 16:02:08;;;;;;;9.63;6.30;;;;;;;17.91;39.92;101632.94;5281900;28;20019;-74
2022/05/04 16:04:40;;;;;;;10.80;7.25;;;;;;;17.93;40.34;101629.84;5283341;28;20021;-74
2022/05/04 16:07:11;;;;;;;11.98;7.05;;;;;;;17.94;40.42;101632.28;5294093;28;20035;-74
2022/05/04 16:09:42;;;;;;;14.45;8.25;;;;;;;17.81;41.21;101627.59;5295782;28;20016;-73
2022/05/04 16:12:13;;;;;;;11.52;8.77;;;;;;;17.81;41.40;101625.63;5295943;28;20050;-74
2022/05/04 16:14:45;;;;;;;36.28;27.70;;;;;;;17.93;41.39;101629.84;5303262;28;20026;-74
2022/05/04 16:22:56;;;;;;;14.75;8.10;;;;;;;17.78;42.10;101623.41;5307484;28;20044;-74
2022/05/04 16:25:28;;;;;;;14.32;8.93;;;;;;;17.79;41.91;101619.53;5299335;28;20357;-74
2022/05/04 16:27:59;;;;;;;31.02;16.52;;;;;;;17.81;41.96;101624.78;5286656;28;20440;-74
2022/05/04 16:30:30;;;;;;;12.13;8.05;;;;;;;17.68;41.67;101623.69;5298471;28;20016;-73
2022/05/04 16:33:01;;;;;;;11.82;7.90;;;;;;;17.77;41.75;101632.19;5308016;28;20028;-75
2022/05/04 16:35:33;;;;;;;9.32;7.30;;;;;;;17.61;41.90;101628.91;5307691;28;20028;-74
2022/05/04 16:38:04;;;;;;;11.25;7.72;;;;;;;17.68;42.07;101634.09;5306908;28;20035;-74
2022/05/04 16:40:36;;;;;;;14.38;7.60;;;;;;;17.59;42.46;101623.63;5307999;28;20020;-74
2022/05/04 16:43:09;;;;;;;12.82;7.43;;;;;;;17.41;42.50;101624.66;5307072;28;20436;-76
2022/05/04 16:45:40;;;;;;;13.77;8.48;;;;;;;17.46;42.68;101626.47;5307151;28;20044;-74
2022/05/04 16:48:12;;;;;;;16.10;9.10;;;;;;;17.55;42.32;101621.78;5288982;28;20040;-74
2022/05/04 16:50:46;;;;;;;11.38;8.98;;;;;;;17.50;42.54;101625.53;5285682;28;20060;-75
2022/05/04 16:53:17;;;;;;;13.52;8.88;;;;;;;17.67;42.49;101626.81;5286196;28;20028;-77
2022/05/04 16:55:48;;;;;;;13.60;8.70;;;;;;;17.45;42.58;101625.66;5286235;28;20028;-73
2022/05/04 16:58:19;;;;;;;12.88;8.15;;;;;;;17.59;42.83;101631.22;5285173;28;20479;-74
2022/05/04 17:00:51;;;;;;;12.20;9.00;;;;;;;17.57;42.77;101623.13;5295043;28;20028;-73
2022/05/04 17:03:24;;;;;;;13.00;9.60;;;;;;;17.55;42.86;101627.38;5292943;28;20028;-76
2022/05/04 17:05:56;;;;;;;11.70;9.18;;;;;;;17.68;42.48;101623.69;5304741;28;20028;-76
2022/05/04 17:08:27;;;;;;;13.98;9.55;;;;;;;17.69;42.28;101618.91;5307117;28;20020;-74
2022/05/04 17:10:58;;;;;;;19.05;8.88;;;;;;;17.90;42.33;101619.25;5302405;28;20028;-75
2022/05/04 17:13:30;;;;;;;14.68;8.85;;;;;;;17.77;42.87;101621.78;5285289;28;20078;-74
2022/05/04 17:16:03;;;;;;;16.30;9.82;;;;;;;17.61;42.86;101620.50;5286578;28;20051;-73
2022/05/04 17:18:34;;;;;;;15.50;10.82;;;;;;;17.60;43.07;101619.66;5285933;28;20028;-73
2022/05/04 17:21:06;;;;;;;15.40;10.45;;;;;;;17.61;43.03;101626.09;5297614;28;20191;-73
2022/05/04 17:23:37;;;;;;;14.50;10.55;;;;;;;17.51;42.97;101617.94;5306853;28;20081;-72
2022/05/04 17:26:08;;;;;;;15.15;10.27;;;;;;;17.48;43.49;101622.22;5305500;28;20028;-72
2022/05/04 17:28:39;;;;;;;12.52;9.60;;;;;;;17.34;43.43;101619.47;5306207;28;20479;-74
